NCAR-RAP Real-Time Weather Data

Output produced by METARs form (01 December 2020  18:39 UTC)
found at http://weather.rap.ucar.edu/surface/
 
KAUW 011654Z AUTO 30004KT 10SM CLR M03/M07 A3007 RMK AO2 SLP206 T10331072
KAUW 011554Z AUTO 32007KT 10SM CLR M05/M08 A3007 RMK AO2 SLP207 T10501083
KAUW 011454Z AUTO 34006KT 10SM CLR M07/M09 A3007 RMK AO2 SLP206 T10671089 53010
KAUW 011354Z AUTO 30006KT 10SM CLR M09/M11 A3005 RMK AO2 SLP204 T10891106
KAUW 011254Z AUTO 28005KT 10SM CLR M10/M11 A3004 RMK AO2 SLP198 T11001111
KAUW 011154Z AUTO 30007KT 10SM CLR M09/M11 A3003 RMK AO2 SLP196 T10941106 11083 21100 53004
KAUW 011054Z AUTO 29008KT 10SM CLR M09/M11 A3002 RMK AO2 SLP192 T10941106
KAUW 010954Z AUTO 30007KT 10SM CLR M09/M11 A3002 RMK AO2 SLP189 T10941106
KAUW 010854Z AUTO 32003KT 10SM CLR M09/M11 A3002 RMK AO2 SLP191 T10941106 58006
KAUW 010754Z AUTO 30008KT 10SM CLR M09/M11 A3004 RMK AO2 SLP196 T10891106
KAUW 010654Z AUTO 27004KT 10SM CLR M10/M11 A3003 RMK AO2 SLP193 T11001106
KAUW 010554Z AUTO 29003KT 10SM CLR M09/M11 A3004 RMK AO2 SLP197 T10891106 11056 21094 410171094 55004
KAUW 010454Z AUTO 00000KT 10SM CLR M09/M11 A3003 RMK AO2 SLP193 T10941111